createdAt,value
2023-04-16T00:01:36.324Z,0.70
2023-04-16T00:04:04.269Z,0.87
2023-04-16T00:06:32.059Z,0.80
2023-04-16T00:08:59.434Z,1.27
2023-04-16T00:11:27.535Z,0.77
2023-04-16T00:13:55.502Z,0.87
2023-04-16T00:16:23.446Z,1.00
2023-04-16T00:18:50.924Z,1.10
2023-04-16T00:21:18.769Z,1.00
2023-04-16T00:23:46.537Z,1.10
2023-04-16T00:26:14.547Z,1.00
2023-04-16T00:28:42.342Z,0.90
2023-04-16T00:31:10.227Z,1.13
2023-04-16T00:33:37.652Z,0.93
2023-04-16T00:36:06.745Z,0.90
2023-04-16T00:38:35.044Z,1.00
2023-04-16T00:41:02.777Z,1.00
2023-04-16T00:43:31.732Z,1.13
2023-04-16T00:45:59.245Z,0.93
2023-04-16T00:48:28.140Z,1.17
2023-04-16T00:50:55.965Z,1.10
2023-04-16T00:53:23.466Z,0.93
2023-04-16T00:55:51.414Z,0.97
2023-04-16T00:58:19.355Z,1.20
2023-04-16T01:00:47.197Z,1.00
2023-04-16T01:03:14.766Z,0.90
2023-04-16T01:05:42.900Z,1.47
2023-04-16T01:08:20.663Z,1.00
2023-04-16T01:10:48.610Z,0.90
2023-04-16T01:13:18.863Z,1.00
2023-04-16T01:15:46.771Z,1.20
2023-04-16T01:18:16.252Z,1.13
2023-04-16T01:20:44.170Z,1.00
2023-04-16T01:23:11.881Z,1.17
2023-04-16T01:25:40.178Z,1.07
2023-04-16T01:28:07.956Z,1.27
2023-04-16T01:30:37.659Z,1.33
2023-04-16T01:33:05.513Z,0.93
2023-04-16T01:35:33.009Z,1.20
2023-04-16T01:38:00.955Z,1.10
2023-04-16T01:40:29.280Z,1.10
2023-04-16T01:42:57.263Z,1.20
2023-04-16T01:45:24.919Z,1.20
2023-04-16T01:47:52.984Z,1.03
2023-04-16T01:50:20.768Z,1.30
2023-04-16T01:52:48.650Z,1.33
2023-04-16T01:55:16.214Z,1.10
2023-04-16T01:57:43.832Z,1.13
2023-04-16T02:00:12.817Z,1.10
2023-04-16T02:02:40.693Z,1.30
2023-04-16T02:05:09.482Z,1.20
2023-04-16T02:07:37.557Z,1.37
2023-04-16T02:10:07.272Z,1.30
2023-04-16T02:12:35.261Z,1.13
2023-04-16T02:15:03.620Z,1.40
2023-04-16T02:17:31.418Z,1.20
2023-04-16T02:19:59.346Z,1.50
2023-04-16T02:22:27.240Z,1.20
2023-04-16T02:24:54.294Z,1.40
2023-04-16T02:27:22.024Z,1.30
2023-04-16T02:29:49.857Z,1.30
2023-04-16T02:32:18.365Z,1.50
2023-04-16T02:34:46.692Z,1.43
2023-04-16T02:37:15.658Z,1.73
2023-04-16T02:39:44.005Z,1.40
2023-04-16T02:42:11.950Z,2.00
2023-04-16T02:44:39.988Z,1.90
2023-04-16T02:47:07.834Z,2.10
2023-04-16T02:49:35.936Z,1.90
2023-04-16T02:52:03.454Z,2.07
2023-04-16T02:54:31.454Z,2.00
2023-04-16T02:56:59.722Z,2.00
2023-04-16T02:59:27.540Z,1.73
2023-04-16T03:01:55.557Z,1.60
2023-04-16T03:04:23.139Z,1.90
2023-04-16T03:06:50.729Z,1.60
2023-04-16T03:09:18.244Z,2.10
2023-04-16T03:11:45.974Z,2.63
2023-04-16T03:14:13.937Z,1.57
2023-04-16T03:16:42.271Z,1.53
2023-04-16T03:19:10.321Z,1.60
2023-04-16T03:21:38.232Z,1.30
2023-04-16T03:24:06.224Z,1.53
2023-04-16T03:26:34.223Z,1.17
2023-04-16T03:29:05.467Z,1.50
2023-04-16T03:31:33.004Z,1.30
2023-04-16T03:34:00.986Z,1.10
2023-04-16T03:36:28.511Z,1.70
2023-04-16T03:38:56.087Z,1.33
2023-04-16T03:41:24.082Z,1.50
2023-04-16T03:43:52.004Z,1.50
2023-04-16T03:46:20.407Z,1.20
2023-04-16T03:48:48.519Z,1.80
2023-04-16T03:51:16.218Z,1.53
2023-04-16T03:53:43.237Z,1.30
2023-04-16T03:56:11.103Z,1.37
2023-04-16T03:58:41.851Z,1.70
2023-04-16T04:01:10.234Z,1.40
2023-04-16T04:03:38.366Z,1.50
2023-04-16T04:06:10.266Z,1.70
2023-04-16T04:08:38.043Z,1.70
2023-04-16T04:11:06.115Z,1.70
2023-04-16T04:13:33.910Z,1.60
2023-04-16T04:16:02.436Z,1.90
2023-04-16T04:18:30.508Z,1.60
2023-04-16T04:20:57.973Z,1.73
2023-04-16T04:23:25.640Z,1.80
2023-04-16T04:25:53.921Z,1.80
2023-04-16T04:28:21.774Z,1.83
2023-04-16T04:30:49.950Z,1.87
2023-04-16T04:33:17.699Z,1.53
2023-04-16T04:35:45.646Z,1.80
2023-04-16T04:38:15.627Z,2.00
2023-04-16T04:40:44.478Z,1.80
2023-04-16T04:43:15.983Z,2.30
2023-04-16T04:45:44.302Z,1.97
2023-04-16T04:48:12.322Z,2.13
2023-04-16T04:50:40.957Z,2.40
2023-04-16T04:53:11.553Z,2.27
2023-04-16T04:55:40.157Z,2.33
2023-04-16T04:58:08.137Z,2.47
2023-04-16T05:00:39.082Z,3.00
2023-04-16T05:03:07.485Z,3.00
2023-04-16T05:05:35.273Z,2.67
2023-04-16T05:08:03.101Z,2.60
2023-04-16T05:10:30.771Z,2.10
2023-04-16T05:12:58.569Z,2.80
2023-04-16T05:15:26.217Z,2.60
2023-04-16T05:17:53.760Z,2.30
2023-04-16T05:20:23.034Z,2.03
2023-04-16T05:22:51.886Z,2.33
2023-04-16T05:25:19.531Z,2.87
2023-04-16T05:27:47.327Z,3.00
2023-04-16T05:30:15.235Z,3.63
2023-04-16T05:32:42.886Z,3.50
2023-04-16T05:35:11.351Z,4.00
2023-04-16T05:37:42.016Z,3.43
2023-04-16T05:40:13.649Z,3.93
2023-04-16T05:42:41.623Z,2.70
2023-04-16T05:45:14.427Z,2.33
2023-04-16T05:47:42.615Z,2.80
2023-04-16T05:50:12.189Z,2.43
2023-04-16T05:52:40.150Z,2.50
2023-04-16T05:55:08.840Z,2.57
2023-04-16T05:57:37.058Z,3.00
2023-04-16T06:00:06.791Z,3.67
2023-04-16T06:02:37.270Z,3.23
2023-04-16T06:05:06.465Z,3.80
2023-04-16T06:07:34.441Z,3.77
2023-04-16T06:10:02.441Z,3.60
2023-04-16T06:12:29.933Z,3.63
2023-04-16T06:14:57.560Z,3.63
2023-04-16T06:17:25.371Z,4.40
2023-04-16T06:19:53.392Z,4.80
2023-04-16T06:22:21.191Z,4.83
2023-04-16T06:24:48.770Z,4.00
2023-04-16T06:27:16.743Z,4.37
2023-04-16T06:29:44.508Z,4.37
2023-04-16T06:32:11.948Z,3.80
2023-04-16T06:34:39.598Z,3.77
2023-04-16T06:37:10.355Z,3.50
2023-04-16T06:39:41.994Z,2.90
2023-04-16T06:42:09.624Z,2.67
2023-04-16T06:44:37.560Z,2.57
2023-04-16T06:47:05.527Z,2.50
2023-04-16T06:49:33.128Z,2.03
2023-04-16T06:52:01.986Z,2.10
2023-04-16T06:54:30.235Z,1.70
2023-04-16T06:56:58.129Z,2.17
2023-04-16T06:59:25.917Z,2.00
2023-04-16T07:01:53.993Z,2.03
2023-04-16T07:04:21.907Z,1.73
2023-04-16T07:06:51.802Z,2.00
2023-04-16T07:09:19.252Z,2.50
2023-04-16T07:11:47.058Z,3.20
2023-04-16T07:14:15.095Z,3.10
2023-04-16T07:16:42.616Z,4.10
2023-04-16T07:19:10.350Z,3.20
2023-04-16T07:21:37.643Z,4.17
2023-04-16T07:24:05.656Z,4.03
2023-04-16T07:26:33.609Z,3.87
2023-04-16T07:29:01.469Z,3.97
2023-04-16T07:31:29.398Z,4.50
2023-04-16T07:34:04.505Z,4.20
2023-04-16T07:36:32.273Z,4.00
2023-04-16T07:39:00.174Z,4.13
2023-04-16T07:41:27.934Z,4.30
2023-04-16T07:43:55.555Z,3.83
2023-04-16T07:46:24.902Z,4.17
2023-04-16T07:48:53.916Z,4.67
2023-04-16T07:51:21.880Z,4.27
2023-04-16T07:53:49.841Z,4.23
2023-04-16T07:56:17.355Z,3.77
2023-04-16T07:58:45.246Z,3.83
2023-04-16T08:01:13.445Z,3.57
2023-04-16T08:03:41.253Z,4.00
2023-04-16T08:06:09.596Z,3.87
2023-04-16T08:08:37.163Z,4.03
2023-04-16T08:11:05.077Z,4.27
2023-04-16T08:13:33.725Z,2.30
2023-04-16T08:16:01.952Z,2.60
2023-04-16T08:18:29.983Z,3.43
2023-04-16T08:20:58.165Z,3.30
2023-04-16T08:23:25.564Z,2.60
2023-04-16T08:25:53.155Z,2.47
2023-04-16T08:28:21.282Z,2.80
2023-04-16T08:30:48.822Z,2.40
2023-04-16T08:33:16.753Z,3.10
2023-04-16T08:35:44.246Z,2.93
2023-04-16T08:38:13.312Z,3.33
2023-04-16T08:40:41.864Z,3.10
2023-04-16T08:43:12.407Z,3.03
2023-04-16T08:45:39.487Z,3.57
2023-04-16T08:48:07.601Z,2.80
2023-04-16T08:50:35.693Z,3.07
2023-04-16T08:53:07.008Z,3.37
2023-04-16T08:55:38.562Z,2.90
2023-04-16T08:58:36.731Z,2.37
2023-04-16T09:01:05.534Z,2.63
2023-04-16T09:03:36.155Z,2.93
2023-04-16T09:06:04.187Z,2.10
2023-04-16T09:08:32.286Z,1.83
2023-04-16T09:11:00.473Z,2.00
2023-04-16T09:13:28.067Z,1.97
2023-04-16T09:15:57.273Z,1.83
2023-04-16T09:18:24.812Z,2.27
2023-04-16T09:20:52.234Z,2.10
2023-04-16T09:23:19.709Z,2.40
2023-04-16T09:25:47.854Z,1.33
2023-04-16T09:28:57.870Z,2.07
2023-04-16T09:31:25.466Z,1.70
2023-04-16T09:34:09.652Z,2.00
2023-04-16T09:36:37.532Z,2.10
2023-04-16T09:39:05.347Z,1.80
2023-04-16T09:41:35.956Z,1.77
2023-04-16T09:44:06.997Z,1.70
2023-04-16T09:46:41.885Z,1.60
2023-04-16T09:49:16.693Z,1.63
2023-04-16T09:51:45.709Z,1.80
2023-04-16T09:54:13.673Z,1.60
2023-04-16T09:56:45.908Z,1.70
2023-04-16T09:59:21.108Z,1.60
2023-04-16T10:01:49.851Z,1.60
2023-04-16T10:04:17.057Z,1.43
2023-04-16T10:06:46.952Z,1.07
2023-04-16T10:09:14.890Z,1.70
2023-04-16T10:11:42.526Z,2.17
2023-04-16T10:14:10.484Z,1.50
2023-04-16T10:16:41.202Z,1.60
2023-04-16T10:19:09.468Z,1.73
2023-04-16T10:21:37.314Z,1.33
2023-04-16T10:24:05.923Z,1.50
2023-04-16T10:26:33.832Z,2.00
2023-04-16T10:29:01.227Z,3.77
2023-04-16T10:31:29.627Z,2.63
2023-04-16T10:33:56.875Z,2.27
2023-04-16T10:36:25.115Z,2.10
2023-04-16T10:38:59.042Z,2.30
2023-04-16T10:41:27.081Z,2.80
2023-04-16T10:43:54.717Z,1.60
2023-04-16T10:46:50.945Z,1.77
2023-04-16T10:49:19.341Z,1.60
2023-04-16T10:52:18.982Z,1.37
2023-04-16T10:54:47.914Z,1.80
2023-04-16T10:57:18.933Z,1.50
2023-04-16T10:59:46.675Z,1.67
2023-04-16T11:02:17.015Z,1.40
2023-04-16T11:04:49.326Z,1.00
2023-04-16T11:07:20.517Z,1.30
2023-04-16T11:10:02.097Z,1.10
2023-04-16T11:12:47.166Z,1.70
2023-04-16T11:15:15.851Z,1.37
2023-04-16T11:17:46.895Z,1.70
2023-04-16T11:20:27.401Z,2.00
2023-04-16T11:22:59.088Z,1.70
2023-04-16T11:25:30.306Z,1.70
2023-04-16T11:27:59.182Z,2.43
2023-04-16T11:30:31.237Z,1.80
2023-04-16T11:32:58.709Z,1.80
2023-04-16T11:35:25.441Z,1.53
2023-04-16T11:37:56.361Z,1.80
2023-04-16T11:40:24.084Z,1.67
2023-04-16T11:42:52.378Z,1.90
2023-04-16T11:45:23.516Z,1.40
2023-04-16T11:47:52.270Z,1.33
2023-04-16T11:50:22.120Z,1.20
2023-04-16T11:52:49.686Z,1.60
2023-04-16T11:55:17.798Z,2.40
2023-04-16T11:57:46.043Z,1.42
2023-04-16T12:00:15.248Z,1.55
2023-04-16T12:02:53.047Z,1.77
2023-04-16T12:05:39.201Z,1.88
2023-04-16T12:08:10.566Z,1.70
2023-04-16T12:10:39.309Z,1.50
2023-04-16T12:13:16.506Z,1.40
2023-04-16T12:16:19.673Z,1.40
2023-04-16T12:19:07.035Z,1.20
2023-04-16T12:22:06.679Z,1.20
2023-04-16T12:24:34.027Z,1.30
2023-04-16T12:27:03.504Z,1.08
2023-04-16T12:29:32.063Z,1.33
2023-04-16T12:32:00.203Z,2.05
2023-04-16T12:34:48.124Z,1.63
2023-04-16T12:37:15.479Z,2.10
2023-04-16T12:39:43.992Z,1.73
2023-04-16T12:42:13.281Z,1.65
2023-04-16T12:44:40.861Z,1.67
2023-04-16T12:47:09.123Z,1.75
2023-04-16T12:49:37.486Z,1.70
2023-04-16T12:52:08.760Z,1.60
2023-04-16T12:54:36.320Z,1.60
2023-04-16T12:57:28.795Z,1.50
2023-04-16T12:59:59.636Z,1.73
2023-04-16T13:02:46.881Z,2.00
2023-04-16T13:05:19.306Z,1.80
2023-04-16T13:07:49.204Z,1.98
2023-04-16T13:10:16.753Z,1.60
2023-04-16T13:12:47.362Z,1.67
2023-04-16T13:15:15.329Z,1.60
2023-04-16T13:17:45.470Z,1.80
2023-04-16T13:20:24.612Z,2.10
2023-04-16T13:22:52.488Z,1.88
2023-04-16T13:25:20.395Z,1.77
2023-04-16T13:27:48.365Z,1.90
2023-04-16T13:30:17.651Z,1.97
2023-04-16T13:32:45.513Z,2.22
2023-04-16T13:35:15.190Z,2.58
2023-04-16T13:37:42.737Z,1.80
2023-04-16T13:40:11.217Z,1.90
2023-04-16T13:42:38.754Z,1.77
2023-04-16T13:45:09.452Z,1.70
2023-04-16T13:47:36.799Z,1.73
2023-04-16T13:50:05.716Z,1.65
2023-04-16T13:52:33.628Z,1.92
2023-04-16T13:55:01.707Z,1.65
2023-04-16T13:57:29.173Z,1.88
2023-04-16T13:59:56.687Z,1.65
2023-04-16T14:02:26.094Z,1.90
2023-04-16T14:04:54.003Z,1.80
2023-04-16T14:07:26.041Z,1.97
2023-04-16T14:09:54.531Z,1.80
2023-04-16T14:12:22.246Z,1.83
2023-04-16T14:14:50.389Z,1.80
2023-04-16T14:17:18.086Z,1.87
2023-04-16T14:19:46.036Z,1.90
2023-04-16T14:22:17.721Z,2.00
2023-04-16T14:24:45.867Z,1.80
2023-04-16T14:27:13.688Z,1.90
2023-04-16T14:29:41.575Z,1.90
2023-04-16T14:32:09.142Z,2.00
2023-04-16T14:34:37.055Z,1.80
2023-04-16T14:37:04.306Z,2.17
2023-04-16T14:39:32.231Z,2.03
2023-04-16T14:42:00.241Z,2.17
2023-04-16T14:44:28.315Z,2.03
2023-04-16T14:47:03.106Z,1.93
2023-04-16T14:49:31.361Z,1.63
2023-04-16T14:51:58.966Z,2.05
2023-04-16T14:54:26.550Z,1.70
2023-04-16T14:56:54.650Z,1.52
2023-04-16T14:59:22.507Z,1.70
2023-04-16T15:01:50.248Z,2.00
2023-04-16T15:04:18.381Z,1.45
2023-04-16T15:06:46.587Z,1.37
2023-04-16T15:09:14.763Z,1.30
2023-04-16T15:11:42.741Z,1.57
2023-04-16T15:14:10.637Z,1.50
2023-04-16T15:16:38.067Z,1.63
2023-04-16T15:19:05.721Z,1.37
2023-04-16T15:21:33.198Z,1.73
2023-04-16T15:24:01.270Z,1.60
2023-04-16T15:26:29.817Z,1.23
2023-04-16T15:28:57.161Z,1.40
2023-04-16T15:31:25.535Z,1.30
2023-04-16T15:33:53.657Z,1.20
2023-04-16T15:36:21.267Z,1.20
2023-04-16T15:38:48.934Z,1.43
2023-04-16T15:41:16.437Z,1.10
2023-04-16T15:43:44.043Z,1.20
2023-04-16T15:46:11.849Z,1.20
2023-04-16T15:48:39.844Z,1.30
2023-04-16T15:51:07.732Z,1.20
2023-04-16T15:53:35.704Z,0.93
2023-04-16T15:56:03.198Z,1.40
2023-04-16T15:58:30.880Z,1.00
2023-04-16T16:00:58.989Z,0.80
2023-04-16T16:03:27.462Z,0.93
2023-04-16T16:05:55.545Z,0.80
2023-04-16T16:08:23.971Z,0.67
2023-04-16T16:10:52.257Z,0.90
2023-04-16T16:13:20.250Z,1.00
2023-04-16T16:15:48.199Z,0.67
2023-04-16T16:18:16.170Z,0.70
2023-04-16T16:20:44.393Z,1.13
2023-04-16T16:23:12.599Z,0.87
2023-04-16T16:25:42.117Z,1.20
2023-04-16T16:28:15.586Z,0.70
2023-04-16T16:30:43.168Z,0.80
2023-04-16T16:33:11.602Z,0.80
2023-04-16T16:35:39.492Z,0.90
2023-04-16T16:38:07.454Z,0.90
2023-04-16T16:40:35.456Z,0.50
2023-04-16T16:43:03.454Z,0.50
2023-04-16T16:45:31.440Z,0.70
2023-04-16T16:47:59.033Z,0.70
2023-04-16T16:50:26.900Z,0.60
2023-04-16T16:52:54.825Z,0.70
2023-04-16T16:55:23.425Z,0.50
2023-04-16T16:57:51.228Z,0.60
2023-04-16T17:00:20.819Z,0.60
2023-04-16T17:02:51.145Z,0.50
2023-04-16T17:05:19.191Z,2.10
2023-04-16T17:07:46.741Z,1.10
2023-04-16T17:10:21.045Z,0.70
2023-04-16T17:12:49.421Z,0.63
2023-04-16T17:15:18.508Z,0.50
2023-04-16T17:17:47.231Z,0.90
2023-04-16T17:20:14.870Z,1.00
2023-04-16T17:22:43.214Z,1.20
2023-04-16T17:25:12.116Z,0.80
2023-04-16T17:27:39.984Z,0.80
2023-04-16T17:30:11.763Z,0.40
2023-04-16T17:32:39.306Z,0.70
2023-04-16T17:35:09.435Z,0.80
2023-04-16T17:37:37.458Z,0.87
2023-04-16T17:40:07.980Z,0.80
2023-04-16T17:42:36.742Z,0.80
2023-04-16T17:45:05.403Z,0.80
2023-04-16T17:47:34.390Z,0.87
2023-04-16T17:50:02.196Z,0.80
2023-04-16T17:52:29.845Z,0.93
2023-04-16T17:55:01.301Z,1.03
2023-04-16T17:57:28.962Z,0.83
2023-04-16T17:59:57.043Z,0.73
2023-04-16T18:02:24.705Z,0.70
2023-04-16T18:04:52.684Z,0.63
2023-04-16T18:07:20.717Z,0.80
2023-04-16T18:09:48.321Z,0.70
2023-04-16T18:12:16.430Z,0.70
2023-04-16T18:14:45.064Z,0.70
2023-04-16T18:17:13.072Z,0.90
2023-04-16T18:19:43.670Z,0.70
2023-04-16T18:22:13.304Z,0.90
2023-04-16T18:24:41.285Z,1.17
2023-04-16T18:27:09.149Z,1.00
2023-04-16T18:29:38.793Z,0.83
2023-04-16T18:32:11.720Z,0.70
2023-04-16T18:34:40.051Z,0.87
2023-04-16T18:37:07.872Z,2.43
2023-04-16T18:39:36.547Z,1.90
2023-04-16T18:42:04.328Z,1.30
2023-04-16T18:44:32.364Z,1.43
2023-04-16T18:47:00.338Z,1.63
2023-04-16T18:49:28.006Z,1.50
2023-04-16T18:51:55.930Z,1.50
2023-04-16T18:54:23.784Z,1.30
2023-04-16T18:56:51.552Z,2.50
2023-04-16T18:59:19.543Z,1.70
2023-04-16T19:01:47.419Z,1.30
2023-04-16T19:04:15.125Z,1.30
2023-04-16T19:06:42.794Z,1.03
2023-04-16T19:09:11.740Z,1.30
2023-04-16T19:11:39.762Z,1.70
2023-04-16T19:14:08.199Z,2.23
2023-04-16T19:16:36.006Z,1.93
2023-04-16T19:19:03.863Z,2.37
2023-04-16T19:21:31.337Z,2.20
2023-04-16T19:23:58.786Z,1.93
2023-04-16T19:26:27.091Z,2.00
2023-04-16T19:28:54.513Z,2.00
2023-04-16T19:31:22.469Z,1.93
2023-04-16T19:33:50.445Z,2.10
2023-04-16T19:36:17.935Z,2.00
2023-04-16T19:38:45.922Z,1.80
2023-04-16T19:41:13.893Z,2.20
2023-04-16T19:43:41.760Z,1.70
2023-04-16T19:46:16.786Z,1.70
2023-04-16T19:48:44.735Z,1.77
2023-04-16T19:51:12.158Z,2.30
2023-04-16T19:53:39.915Z,2.00
2023-04-16T19:56:07.873Z,2.03
2023-04-16T19:58:35.450Z,2.40
2023-04-16T20:01:02.691Z,2.53
2023-04-16T20:03:30.616Z,2.07
2023-04-16T20:05:58.514Z,2.67
2023-04-16T20:08:26.405Z,2.23
2023-04-16T20:10:54.565Z,2.63
2023-04-16T20:13:23.044Z,2.40
2023-04-16T20:15:54.075Z,2.20
2023-04-16T20:18:21.557Z,2.43
2023-04-16T20:20:49.091Z,2.37
2023-04-16T20:23:16.547Z,2.20
2023-04-16T20:25:44.751Z,2.40
2023-04-16T20:28:12.731Z,2.27
2023-04-16T20:30:40.311Z,2.20
2023-04-16T20:33:08.912Z,2.10
2023-04-16T20:35:36.534Z,2.00
2023-04-16T20:38:04.479Z,2.13
2023-04-16T20:40:32.426Z,1.93
2023-04-16T20:43:00.438Z,2.10
2023-04-16T20:45:32.776Z,2.10
2023-04-16T20:48:09.115Z,2.20
2023-04-16T20:50:40.668Z,2.15
2023-04-16T20:53:08.580Z,2.13
2023-04-16T20:55:36.892Z,2.00
2023-04-16T20:58:04.424Z,1.70
2023-04-16T21:00:33.041Z,2.77
2023-04-16T21:03:01.035Z,2.13
2023-04-16T21:05:30.029Z,2.03
2023-04-16T21:07:57.948Z,2.40
2023-04-16T21:10:25.464Z,2.30
2023-04-16T21:12:53.341Z,2.07
2023-04-16T21:15:21.455Z,2.20
2023-04-16T21:17:49.365Z,2.20
2023-04-16T21:20:18.174Z,2.00
2023-04-16T21:22:46.116Z,2.40
2023-04-16T21:25:14.336Z,2.10
2023-04-16T21:27:42.258Z,2.20
2023-04-16T21:30:13.305Z,2.20
2023-04-16T21:32:40.966Z,2.00
2023-04-16T21:35:10.744Z,1.97
2023-04-16T21:37:38.798Z,1.83
2023-04-16T21:40:07.685Z,2.40
2023-04-16T21:42:42.390Z,1.93
2023-04-16T21:45:11.525Z,1.97
2023-04-16T21:47:39.548Z,2.20
2023-04-16T21:50:10.034Z,1.87
2023-04-16T21:52:40.742Z,2.30
2023-04-16T21:55:11.066Z,1.83
2023-04-16T21:57:38.973Z,2.27
2023-04-16T22:00:13.834Z,2.07
2023-04-16T22:03:01.730Z,2.13
2023-04-16T22:05:31.771Z,2.23
2023-04-16T22:08:02.496Z,2.43
2023-04-16T22:10:33.873Z,2.37
2023-04-16T22:13:06.193Z,2.53
2023-04-16T22:15:34.238Z,2.70
2023-04-16T22:18:01.995Z,2.60
2023-04-16T22:20:30.756Z,2.73
2023-04-16T22:22:58.778Z,2.60
2023-04-16T22:25:26.877Z,3.00
2023-04-16T22:27:54.752Z,2.80
2023-04-16T22:30:22.269Z,2.80
2023-04-16T22:32:50.251Z,2.90
2023-04-16T22:35:18.016Z,2.93
2023-04-16T22:37:45.582Z,2.80
2023-04-16T22:40:14.381Z,2.80
2023-04-16T22:42:41.984Z,2.53
2023-04-16T22:45:11.898Z,2.90
2023-04-16T22:47:39.454Z,2.90
2023-04-16T22:50:10.759Z,2.80
2023-04-16T22:52:38.761Z,2.70
2023-04-16T22:55:08.259Z,2.70
2023-04-16T22:57:35.816Z,2.80
2023-04-16T23:00:06.501Z,3.00
2023-04-16T23:02:34.465Z,3.40
2023-04-16T23:05:02.151Z,3.00
2023-04-16T23:07:30.180Z,3.40
2023-04-16T23:09:57.813Z,3.20
2023-04-16T23:12:25.597Z,3.87
2023-04-16T23:14:53.219Z,3.10
2023-04-16T23:17:21.156Z,3.30
2023-04-16T23:19:49.164Z,3.23
2023-04-16T23:22:17.407Z,3.20
2023-04-16T23:24:45.034Z,3.70
2023-04-16T23:27:12.947Z,3.23
2023-04-16T23:29:40.474Z,3.13
2023-04-16T23:32:08.571Z,3.03
2023-04-16T23:34:36.344Z,3.60
2023-04-16T23:37:04.304Z,3.37
2023-04-16T23:39:31.784Z,2.90
2023-04-16T23:41:59.718Z,2.50
2023-04-16T23:44:27.779Z,2.40
2023-04-16T23:46:55.391Z,2.47
2023-04-16T23:49:23.037Z,3.03
2023-04-16T23:51:50.550Z,2.60
2023-04-16T23:54:18.570Z,2.80
2023-04-16T23:56:46.258Z,3.03
2023-04-16T23:59:14.074Z,2.90
